sensor_id;sensor_type;location;lat;lon;timestamp;P1;durP1;ratioP1;P2;durP2;ratioP2
63350;SDS011;54336;51.058;17.040;2022-09-14T00:01:34;23.15;;;14.82;;
63350;SDS011;54336;51.058;17.040;2022-09-14T00:07:26;26.60;;;17.27;;
63350;SDS011;54336;51.058;17.040;2022-09-14T00:13:18;28.80;;;18.70;;
63350;SDS011;54336;51.058;17.040;2022-09-14T00:19:23;28.65;;;18.17;;
63350;SDS011;54336;51.058;17.040;2022-09-14T00:25:17;26.38;;;16.95;;
63350;SDS011;54336;51.058;17.040;2022-09-14T00:31:09;23.80;;;15.10;;
63350;SDS011;54336;51.058;17.040;2022-09-14T00:37:02;23.37;;;15.47;;
63350;SDS011;54336;51.058;17.040;2022-09-14T00:42:54;23.15;;;15.68;;
63350;SDS011;54336;51.058;17.040;2022-09-14T00:48:45;20.60;;;13.73;;
63350;SDS011;54336;51.058;17.040;2022-09-14T00:54:40;19.48;;;13.25;;
63350;SDS011;54336;51.058;17.040;2022-09-14T01:18:30;15.73;;;10.95;;
63350;SDS011;54336;51.058;17.040;2022-09-14T01:24:47;17.02;;;11.00;;
63350;SDS011;54336;51.058;17.040;2022-09-14T01:30:41;16.17;;;10.77;;
63350;SDS011;54336;51.058;17.040;2022-09-14T01:36:35;18.43;;;10.27;;
63350;SDS011;54336;51.058;17.040;2022-09-14T01:42:29;19.33;;;11.32;;
63350;SDS011;54336;51.058;17.040;2022-09-14T01:48:23;16.95;;;11.10;;
63350;SDS011;54336;51.058;17.040;2022-09-14T01:54:34;16.08;;;11.65;;
63350;SDS011;54336;51.058;17.040;2022-09-14T02:00:28;20.88;;;12.55;;
63350;SDS011;54336;51.058;17.040;2022-09-14T02:06:28;19.58;;;12.75;;
63350;SDS011;54336;51.058;17.040;2022-09-14T02:12:23;18.70;;;11.43;;
63350;SDS011;54336;51.058;17.040;2022-09-14T02:18:16;20.35;;;10.90;;
63350;SDS011;54336;51.058;17.040;2022-09-14T02:24:08;21.23;;;11.95;;
63350;SDS011;54336;51.058;17.040;2022-09-14T02:30:01;18.40;;;12.10;;
63350;SDS011;54336;51.058;17.040;2022-09-14T02:35:54;16.80;;;11.63;;
63350;SDS011;54336;51.058;17.040;2022-09-14T02:41:52;18.57;;;11.77;;
63350;SDS011;54336;51.058;17.040;2022-09-14T02:59:51;20.00;;;12.90;;
63350;SDS011;54336;51.058;17.040;2022-09-14T03:05:44;16.60;;;11.55;;
63350;SDS011;54336;51.058;17.040;2022-09-14T03:11:37;21.00;;;11.60;;
63350;SDS011;54336;51.058;17.040;2022-09-14T03:17:29;14.13;;;11.25;;
63350;SDS011;54336;51.058;17.040;2022-09-14T03:23:22;19.80;;;12.13;;
63350;SDS011;54336;51.058;17.040;2022-09-14T03:29:14;15.98;;;11.90;;
63350;SDS011;54336;51.058;17.040;2022-09-14T03:35:06;18.23;;;12.25;;
63350;SDS011;54336;51.058;17.040;2022-09-14T03:40:58;18.35;;;13.23;;
63350;SDS011;54336;51.058;17.040;2022-09-14T03:46:50;19.35;;;12.60;;
63350;SDS011;54336;51.058;17.040;2022-09-14T03:52:42;24.77;;;13.60;;
63350;SDS011;54336;51.058;17.040;2022-09-14T03:58:34;21.75;;;15.27;;
63350;SDS011;54336;51.058;17.040;2022-09-14T04:04:26;24.98;;;15.85;;
63350;SDS011;54336;51.058;17.040;2022-09-14T04:10:18;22.27;;;14.82;;
63350;SDS011;54336;51.058;17.040;2022-09-14T04:16:10;26.08;;;16.65;;
63350;SDS011;54336;51.058;17.040;2022-09-14T04:22:03;25.42;;;16.25;;
63350;SDS011;54336;51.058;17.040;2022-09-14T04:27:55;29.77;;;17.38;;
63350;SDS011;54336;51.058;17.040;2022-09-14T04:34:08;31.77;;;18.15;;
63350;SDS011;54336;51.058;17.040;2022-09-14T04:40:01;31.00;;;17.88;;
63350;SDS011;54336;51.058;17.040;2022-09-14T04:45:59;31.90;;;17.80;;
63350;SDS011;54336;51.058;17.040;2022-09-14T04:51:51;30.02;;;17.08;;
63350;SDS011;54336;51.058;17.040;2022-09-14T04:57:43;28.63;;;16.58;;
63350;SDS011;54336;51.058;17.040;2022-09-14T05:03:36;30.98;;;16.13;;
63350;SDS011;54336;51.058;17.040;2022-09-14T05:09:31;29.35;;;15.55;;
63350;SDS011;54336;51.058;17.040;2022-09-14T05:15:23;24.05;;;14.95;;
63350;SDS011;54336;51.058;17.040;2022-09-14T05:21:16;25.15;;;15.43;;
63350;SDS011;54336;51.058;17.040;2022-09-14T05:27:09;28.50;;;15.50;;
63350;SDS011;54336;51.058;17.040;2022-09-14T05:33:00;21.48;;;13.45;;
63350;SDS011;54336;51.058;17.040;2022-09-14T05:38:52;19.90;;;13.15;;
63350;SDS011;54336;51.058;17.040;2022-09-14T05:44:44;22.65;;;13.55;;
63350;SDS011;54336;51.058;17.040;2022-09-14T05:50:37;25.80;;;14.60;;
63350;SDS011;54336;51.058;17.040;2022-09-14T05:56:28;23.05;;;13.43;;
63350;SDS011;54336;51.058;17.040;2022-09-14T06:02:22;21.95;;;12.88;;
63350;SDS011;54336;51.058;17.040;2022-09-14T06:08:15;17.50;;;12.00;;
63350;SDS011;54336;51.058;17.040;2022-09-14T06:14:07;20.83;;;11.55;;
63350;SDS011;54336;51.058;17.040;2022-09-14T06:19:58;16.65;;;11.55;;
63350;SDS011;54336;51.058;17.040;2022-09-14T06:25:56;17.80;;;11.82;;
63350;SDS011;54336;51.058;17.040;2022-09-14T06:31:49;19.52;;;11.57;;
63350;SDS011;54336;51.058;17.040;2022-09-14T06:37:41;18.33;;;12.23;;
63350;SDS011;54336;51.058;17.040;2022-09-14T06:43:33;21.73;;;11.88;;
63350;SDS011;54336;51.058;17.040;2022-09-14T06:49:27;18.98;;;11.55;;
63350;SDS011;54336;51.058;17.040;2022-09-14T06:55:20;13.80;;;9.82;;
63350;SDS011;54336;51.058;17.040;2022-09-14T07:01:13;15.15;;;10.02;;
63350;SDS011;54336;51.058;17.040;2022-09-14T07:07:06;19.40;;;10.45;;
63350;SDS011;54336;51.058;17.040;2022-09-14T07:13:01;17.58;;;10.00;;
63350;SDS011;54336;51.058;17.040;2022-09-14T07:18:53;17.23;;;9.63;;
63350;SDS011;54336;51.058;17.040;2022-09-14T07:24:46;14.73;;;9.75;;
63350;SDS011;54336;51.058;17.040;2022-09-14T07:30:38;23.73;;;11.43;;
63350;SDS011;54336;51.058;17.040;2022-09-14T07:36:32;14.00;;;9.25;;
63350;SDS011;54336;51.058;17.040;2022-09-14T07:42:26;32.58;;;12.02;;
63350;SDS011;54336;51.058;17.040;2022-09-14T07:48:18;21.60;;;10.23;;
63350;SDS011;54336;51.058;17.040;2022-09-14T07:54:12;12.75;;;9.48;;
63350;SDS011;54336;51.058;17.040;2022-09-14T08:00:05;20.50;;;10.82;;
63350;SDS011;54336;51.058;17.040;2022-09-14T08:06:03;14.80;;;8.35;;
63350;SDS011;54336;51.058;17.040;2022-09-14T08:11:56;13.90;;;9.88;;
63350;SDS011;54336;51.058;17.040;2022-09-14T08:17:48;12.93;;;9.73;;
63350;SDS011;54336;51.058;17.040;2022-09-14T08:23:41;10.37;;;8.07;;
63350;SDS011;54336;51.058;17.040;2022-09-14T08:29:39;15.30;;;8.50;;
63350;SDS011;54336;51.058;17.040;2022-09-14T08:35:32;13.48;;;7.72;;
63350;SDS011;54336;51.058;17.040;2022-09-14T08:47:38;16.23;;;9.02;;
63350;SDS011;54336;51.058;17.040;2022-09-14T08:53:35;11.43;;;7.80;;
63350;SDS011;54336;51.058;17.040;2022-09-14T08:59:51;16.38;;;8.23;;
63350;SDS011;54336;51.058;17.040;2022-09-14T09:11:57;11.13;;;7.65;;
63350;SDS011;54336;51.058;17.040;2022-09-14T09:17:55;11.88;;;8.45;;
63350;SDS011;54336;51.058;17.040;2022-09-14T09:23:48;10.80;;;8.57;;
63350;SDS011;54336;51.058;17.040;2022-09-14T09:29:40;11.85;;;7.35;;
63350;SDS011;54336;51.058;17.040;2022-09-14T09:35:32;8.87;;;7.30;;
63350;SDS011;54336;51.058;17.040;2022-09-14T09:42:19;14.13;;;7.85;;
63350;SDS011;54336;51.058;17.040;2022-09-14T09:47:43;12.23;;;7.22;;
63350;SDS011;54336;51.058;17.040;2022-09-14T09:53:36;10.90;;;7.32;;
63350;SDS011;54336;51.058;17.040;2022-09-14T09:59:37;14.43;;;8.30;;
63350;SDS011;54336;51.058;17.040;2022-09-14T10:05:30;16.75;;;8.45;;
63350;SDS011;54336;51.058;17.040;2022-09-14T10:11:36;11.90;;;8.82;;
63350;SDS011;54336;51.058;17.040;2022-09-14T10:17:28;12.82;;;7.93;;
63350;SDS011;54336;51.058;17.040;2022-09-14T10:29:32;13.30;;;8.07;;
63350;SDS011;54336;51.058;17.040;2022-09-14T10:41:25;13.82;;;7.85;;
63350;SDS011;54336;51.058;17.040;2022-09-14T10:47:38;11.50;;;8.77;;
63350;SDS011;54336;51.058;17.040;2022-09-14T11:05:37;10.30;;;7.78;;
63350;SDS011;54336;51.058;17.040;2022-09-14T11:23:38;14.35;;;8.73;;
63350;SDS011;54336;51.058;17.040;2022-09-14T11:29:39;11.45;;;8.40;;
63350;SDS011;54336;51.058;17.040;2022-09-14T11:35:40;16.35;;;8.98;;
63350;SDS011;54336;51.058;17.040;2022-09-14T11:41:44;11.85;;;8.82;;
63350;SDS011;54336;51.058;17.040;2022-09-14T11:47:42;16.25;;;9.00;;
63350;SDS011;54336;51.058;17.040;2022-09-14T11:53:35;13.30;;;9.23;;
63350;SDS011;54336;51.058;17.040;2022-09-14T11:59:45;15.03;;;8.60;;
63350;SDS011;54336;51.058;17.040;2022-09-14T12:05:41;19.08;;;8.90;;
63350;SDS011;54336;51.058;17.040;2022-09-14T12:11:36;10.98;;;9.10;;
63350;SDS011;54336;51.058;17.040;2022-09-14T12:17:29;11.87;;;8.43;;
63350;SDS011;54336;51.058;17.040;2022-09-14T12:29:31;12.40;;;10.35;;
63350;SDS011;54336;51.058;17.040;2022-09-14T12:53:23;15.63;;;9.68;;
63350;SDS011;54336;51.058;17.040;2022-09-14T13:05:14;14.05;;;9.98;;
63350;SDS011;54336;51.058;17.040;2022-09-14T13:11:07;14.00;;;10.60;;
63350;SDS011;54336;51.058;17.040;2022-09-14T13:17:00;15.30;;;10.30;;
63350;SDS011;54336;51.058;17.040;2022-09-14T13:22:54;13.80;;;9.90;;
63350;SDS011;54336;51.058;17.040;2022-09-14T13:28:46;14.93;;;10.52;;
63350;SDS011;54336;51.058;17.040;2022-09-14T13:34:40;12.75;;;10.07;;
63350;SDS011;54336;51.058;17.040;2022-09-14T13:46:25;15.25;;;9.77;;
63350;SDS011;54336;51.058;17.040;2022-09-14T13:58:37;12.77;;;9.00;;
63350;SDS011;54336;51.058;17.040;2022-09-14T14:04:30;12.48;;;8.80;;
63350;SDS011;54336;51.058;17.040;2022-09-14T14:10:28;13.10;;;10.38;;
63350;SDS011;54336;51.058;17.040;2022-09-14T14:16:23;16.45;;;10.75;;
63350;SDS011;54336;51.058;17.040;2022-09-14T14:22:17;12.57;;;7.85;;
63350;SDS011;54336;51.058;17.040;2022-09-14T14:28:17;9.95;;;8.38;;
63350;SDS011;54336;51.058;17.040;2022-09-14T14:34:21;10.57;;;8.68;;
63350;SDS011;54336;51.058;17.040;2022-09-14T14:40:13;12.98;;;8.98;;
63350;SDS011;54336;51.058;17.040;2022-09-14T14:46:06;10.88;;;8.68;;
63350;SDS011;54336;51.058;17.040;2022-09-14T14:51:59;11.30;;;8.48;;
63350;SDS011;54336;51.058;17.040;2022-09-14T14:57:52;11.35;;;8.85;;
63350;SDS011;54336;51.058;17.040;2022-09-14T15:03:44;9.98;;;8.43;;
63350;SDS011;54336;51.058;17.040;2022-09-14T15:09:37;9.45;;;8.43;;
63350;SDS011;54336;51.058;17.040;2022-09-14T15:15:29;12.90;;;8.25;;
63350;SDS011;54336;51.058;17.040;2022-09-14T15:21:21;12.57;;;7.95;;
63350;SDS011;54336;51.058;17.040;2022-09-14T15:33:07;10.80;;;7.95;;
63350;SDS011;54336;51.058;17.040;2022-09-14T15:39:02;12.30;;;8.65;;
63350;SDS011;54336;51.058;17.040;2022-09-14T15:50:46;14.02;;;9.32;;
63350;SDS011;54336;51.058;17.040;2022-09-14T15:56:39;12.10;;;9.75;;
63350;SDS011;54336;51.058;17.040;2022-09-14T16:02:31;15.13;;;10.10;;
63350;SDS011;54336;51.058;17.040;2022-09-14T16:08:23;11.70;;;8.73;;
63350;SDS011;54336;51.058;17.040;2022-09-14T16:14:16;11.48;;;8.93;;
63350;SDS011;54336;51.058;17.040;2022-09-14T16:20:10;14.43;;;8.68;;
63350;SDS011;54336;51.058;17.040;2022-09-14T16:26:07;12.15;;;7.80;;
63350;SDS011;54336;51.058;17.040;2022-09-14T16:32:01;8.05;;;7.22;;
63350;SDS011;54336;51.058;17.040;2022-09-14T16:37:53;11.35;;;7.78;;
63350;SDS011;54336;51.058;17.040;2022-09-14T16:43:45;11.60;;;8.38;;
63350;SDS011;54336;51.058;17.040;2022-09-14T16:49:38;10.40;;;8.55;;
63350;SDS011;54336;51.058;17.040;2022-09-14T16:55:30;11.88;;;8.90;;
63350;SDS011;54336;51.058;17.040;2022-09-14T17:01:26;14.98;;;8.55;;
63350;SDS011;54336;51.058;17.040;2022-09-14T17:07:19;12.05;;;8.82;;
63350;SDS011;54336;51.058;17.040;2022-09-14T17:13:13;12.70;;;8.75;;
63350;SDS011;54336;51.058;17.040;2022-09-14T17:19:07;12.15;;;8.60;;
63350;SDS011;54336;51.058;17.040;2022-09-14T17:24:59;15.60;;;9.50;;
63350;SDS011;54336;51.058;17.040;2022-09-14T17:30:52;13.35;;;9.85;;
63350;SDS011;54336;51.058;17.040;2022-09-14T17:36:46;13.00;;;10.10;;
63350;SDS011;54336;51.058;17.040;2022-09-14T17:42:38;15.57;;;10.43;;
63350;SDS011;54336;51.058;17.040;2022-09-14T17:48:32;13.50;;;9.52;;
63350;SDS011;54336;51.058;17.040;2022-09-14T17:54:24;15.63;;;9.57;;
63350;SDS011;54336;51.058;17.040;2022-09-14T18:00:16;15.65;;;10.25;;
63350;SDS011;54336;51.058;17.040;2022-09-14T18:06:09;14.37;;;10.23;;
63350;SDS011;54336;51.058;17.040;2022-09-14T18:12:03;18.85;;;12.73;;
63350;SDS011;54336;51.058;17.040;2022-09-14T18:17:55;18.25;;;11.73;;
63350;SDS011;54336;51.058;17.040;2022-09-14T18:23:48;17.38;;;11.38;;
63350;SDS011;54336;51.058;17.040;2022-09-14T18:29:41;16.10;;;11.18;;
63350;SDS011;54336;51.058;17.040;2022-09-14T18:35:34;17.17;;;11.18;;
63350;SDS011;54336;51.058;17.040;2022-09-14T18:41:27;15.77;;;10.73;;
63350;SDS011;54336;51.058;17.040;2022-09-14T18:47:25;16.92;;;11.27;;
63350;SDS011;54336;51.058;17.040;2022-09-14T18:53:16;18.25;;;11.38;;
63350;SDS011;54336;51.058;17.040;2022-09-14T18:59:10;14.82;;;11.18;;
63350;SDS011;54336;51.058;17.040;2022-09-14T19:05:03;17.70;;;12.23;;
63350;SDS011;54336;51.058;17.040;2022-09-14T19:10:56;21.17;;;14.30;;
63350;SDS011;54336;51.058;17.040;2022-09-14T19:16:48;21.23;;;14.75;;
63350;SDS011;54336;51.058;17.040;2022-09-14T19:22:44;25.65;;;16.08;;
63350;SDS011;54336;51.058;17.040;2022-09-14T19:28:35;25.52;;;15.73;;
63350;SDS011;54336;51.058;17.040;2022-09-14T19:34:28;25.70;;;16.70;;
63350;SDS011;54336;51.058;17.040;2022-09-14T19:40:20;24.98;;;14.70;;
63350;SDS011;54336;51.058;17.040;2022-09-14T19:46:17;21.40;;;14.50;;
63350;SDS011;54336;51.058;17.040;2022-09-14T19:52:10;25.05;;;14.88;;
63350;SDS011;54336;51.058;17.040;2022-09-14T19:58:02;21.08;;;15.23;;
63350;SDS011;54336;51.058;17.040;2022-09-14T20:03:55;22.00;;;15.02;;
63350;SDS011;54336;51.058;17.040;2022-09-14T20:09:47;24.13;;;16.85;;
63350;SDS011;54336;51.058;17.040;2022-09-14T20:15:39;24.92;;;16.42;;
63350;SDS011;54336;51.058;17.040;2022-09-14T20:21:31;24.38;;;16.15;;
63350;SDS011;54336;51.058;17.040;2022-09-14T20:27:22;21.83;;;15.45;;
63350;SDS011;54336;51.058;17.040;2022-09-14T20:33:15;22.73;;;15.05;;
63350;SDS011;54336;51.058;17.040;2022-09-14T20:39:09;25.02;;;15.85;;
63350;SDS011;54336;51.058;17.040;2022-09-14T20:50:53;25.67;;;16.33;;
63350;SDS011;54336;51.058;17.040;2022-09-14T20:56:46;25.40;;;17.37;;
63350;SDS011;54336;51.058;17.040;2022-09-14T21:02:38;27.55;;;17.50;;
63350;SDS011;54336;51.058;17.040;2022-09-14T21:08:32;31.60;;;18.57;;
63350;SDS011;54336;51.058;17.040;2022-09-14T21:14:24;23.93;;;15.73;;
63350;SDS011;54336;51.058;17.040;2022-09-14T21:20:17;22.15;;;15.05;;
63350;SDS011;54336;51.058;17.040;2022-09-14T21:26:10;30.23;;;16.15;;
63350;SDS011;54336;51.058;17.040;2022-09-14T21:32:02;27.70;;;17.05;;
63350;SDS011;54336;51.058;17.040;2022-09-14T21:37:59;31.05;;;15.75;;
63350;SDS011;54336;51.058;17.040;2022-09-14T21:43:51;32.85;;;15.68;;
63350;SDS011;54336;51.058;17.040;2022-09-14T21:49:44;24.27;;;15.85;;
63350;SDS011;54336;51.058;17.040;2022-09-14T21:55:37;26.13;;;16.17;;
63350;SDS011;54336;51.058;17.040;2022-09-14T22:01:29;20.35;;;13.90;;
63350;SDS011;54336;51.058;17.040;2022-09-14T22:07:22;22.00;;;14.20;;
63350;SDS011;54336;51.058;17.040;2022-09-14T22:13:16;26.23;;;13.80;;
63350;SDS011;54336;51.058;17.040;2022-09-14T22:19:19;24.23;;;13.73;;
63350;SDS011;54336;51.058;17.040;2022-09-14T22:25:11;26.80;;;14.48;;
63350;SDS011;54336;51.058;17.040;2022-09-14T22:31:03;24.55;;;14.05;;
63350;SDS011;54336;51.058;17.040;2022-09-14T22:36:57;26.45;;;14.32;;
63350;SDS011;54336;51.058;17.040;2022-09-14T22:42:50;33.35;;;15.00;;
63350;SDS011;54336;51.058;17.040;2022-09-14T22:48:42;22.37;;;14.17;;
63350;SDS011;54336;51.058;17.040;2022-09-14T22:54:35;32.88;;;14.43;;
63350;SDS011;54336;51.058;17.040;2022-09-14T23:00:27;18.58;;;11.80;;
63350;SDS011;54336;51.058;17.040;2022-09-14T23:06:19;20.25;;;11.40;;
63350;SDS011;54336;51.058;17.040;2022-09-14T23:12:11;21.52;;;12.68;;
63350;SDS011;54336;51.058;17.040;2022-09-14T23:18:04;20.55;;;12.07;;
63350;SDS011;54336;51.058;17.040;2022-09-14T23:23:58;26.33;;;14.25;;
63350;SDS011;54336;51.058;17.040;2022-09-14T23:29:50;21.23;;;14.18;;
63350;SDS011;54336;51.058;17.040;2022-09-14T23:35:46;28.60;;;15.52;;
63350;SDS011;54336;51.058;17.040;2022-09-14T23:41:38;24.38;;;17.20;;
63350;SDS011;54336;51.058;17.040;2022-09-14T23:47:31;29.90;;;17.60;;
63350;SDS011;54336;51.058;17.040;2022-09-14T23:53:23;26.55;;;15.98;;
63350;SDS011;54336;51.058;17.040;2022-09-14T23:59:15;34.10;;;19.63;;
